sensor_id;sensor_type;location;lat;lon;timestamp;temperature;humidity
59923;DHT22;45778;51.142;3.732;2023-02-19T00:01:21;10.30;99.90
59923;DHT22;45778;51.142;3.732;2023-02-19T00:03:58;10.30;99.90
59923;DHT22;45778;51.142;3.732;2023-02-19T00:06:26;10.30;99.90
59923;DHT22;45778;51.142;3.732;2023-02-19T00:08:52;10.30;99.90
59923;DHT22;45778;51.142;3.732;2023-02-19T00:11:20;10.30;99.90
59923;DHT22;45778;51.142;3.732;2023-02-19T00:13:48;10.30;99.90
59923;DHT22;45778;51.142;3.732;2023-02-19T00:16:19;10.20;99.90
59923;DHT22;45778;51.142;3.732;2023-02-19T00:18:45;10.30;99.90
59923;DHT22;45778;51.142;3.732;2023-02-19T00:21:11;10.30;99.90
59923;DHT22;45778;51.142;3.732;2023-02-19T00:23:37;10.20;99.90
59923;DHT22;45778;51.142;3.732;2023-02-19T00:26:08;10.30;99.90
59923;DHT22;45778;51.142;3.732;2023-02-19T00:28:34;10.20;99.90
59923;DHT22;45778;51.142;3.732;2023-02-19T00:31:08;10.20;99.90
59923;DHT22;45778;51.142;3.732;2023-02-19T00:33:33;10.20;99.90
59923;DHT22;45778;51.142;3.732;2023-02-19T00:36:01;10.20;99.90
59923;DHT22;45778;51.142;3.732;2023-02-19T00:38:27;10.20;99.90
59923;DHT22;45778;51.142;3.732;2023-02-19T00:40:53;10.20;99.90
59923;DHT22;45778;51.142;3.732;2023-02-19T00:43:18;10.20;99.90
59923;DHT22;45778;51.142;3.732;2023-02-19T00:45:44;10.10;99.90
59923;DHT22;45778;51.142;3.732;2023-02-19T00:48:10;10.20;99.90
59923;DHT22;45778;51.142;3.732;2023-02-19T00:50:35;10.10;99.90
59923;DHT22;45778;51.142;3.732;2023-02-19T00:53:01;10.10;99.90
59923;DHT22;45778;51.142;3.732;2023-02-19T00:55:27;10.10;99.90
59923;DHT22;45778;51.142;3.732;2023-02-19T00:57:53;10.10;99.90
59923;DHT22;45778;51.142;3.732;2023-02-19T01:00:18;10.20;99.90
59923;DHT22;45778;51.142;3.732;2023-02-19T01:02:44;10.20;99.90
59923;DHT22;45778;51.142;3.732;2023-02-19T01:05:10;10.20;99.90
59923;DHT22;45778;51.142;3.732;2023-02-19T01:07:36;10.20;99.90
59923;DHT22;45778;51.142;3.732;2023-02-19T01:10:02;10.20;99.90
59923;DHT22;45778;51.142;3.732;2023-02-19T01:12:28;10.20;99.90
59923;DHT22;45778;51.142;3.732;2023-02-19T01:14:55;10.20;99.90
59923;DHT22;45778;51.142;3.732;2023-02-19T01:17:21;10.20;99.90
59923;DHT22;45778;51.142;3.732;2023-02-19T01:19:47;10.20;99.90
59923;DHT22;45778;51.142;3.732;2023-02-19T01:22:13;10.20;99.90
59923;DHT22;45778;51.142;3.732;2023-02-19T01:24:39;10.20;99.90
59923;DHT22;45778;51.142;3.732;2023-02-19T01:27:05;10.20;99.90
59923;DHT22;45778;51.142;3.732;2023-02-19T01:29:30;10.10;99.90
59923;DHT22;45778;51.142;3.732;2023-02-19T01:31:56;10.20;99.90
59923;DHT22;45778;51.142;3.732;2023-02-19T01:34:22;10.20;99.90
59923;DHT22;45778;51.142;3.732;2023-02-19T01:36:48;10.20;99.90
59923;DHT22;45778;51.142;3.732;2023-02-19T01:39:13;10.10;99.90
59923;DHT22;45778;51.142;3.732;2023-02-19T01:41:40;10.10;99.90
59923;DHT22;45778;51.142;3.732;2023-02-19T01:46:43;10.10;99.90
59923;DHT22;45778;51.142;3.732;2023-02-19T01:49:16;10.10;99.90
59923;DHT22;45778;51.142;3.732;2023-02-19T01:52:01;10.10;99.90
59923;DHT22;45778;51.142;3.732;2023-02-19T01:54:32;10.20;99.90
59923;DHT22;45778;51.142;3.732;2023-02-19T01:57:00;10.20;99.90
59923;DHT22;45778;51.142;3.732;2023-02-19T01:59:27;10.20;99.90
59923;DHT22;45778;51.142;3.732;2023-02-19T02:01:53;10.20;99.90
59923;DHT22;45778;51.142;3.732;2023-02-19T02:04:19;10.20;99.90
59923;DHT22;45778;51.142;3.732;2023-02-19T02:06:55;10.20;99.90
59923;DHT22;45778;51.142;3.732;2023-02-19T02:09:27;10.20;99.90
59923;DHT22;45778;51.142;3.732;2023-02-19T02:12:12;10.20;99.90
59923;DHT22;45778;51.142;3.732;2023-02-19T02:14:42;10.20;99.90
59923;DHT22;45778;51.142;3.732;2023-02-19T02:20:18;10.20;99.90
59923;DHT22;45778;51.142;3.732;2023-02-19T02:25:38;10.10;99.90
59923;DHT22;45778;51.142;3.732;2023-02-19T02:30:46;10.20;99.90
59923;DHT22;45778;51.142;3.732;2023-02-19T02:36:11;10.20;99.90
59923;DHT22;45778;51.142;3.732;2023-02-19T02:38:41;10.20;99.90
59923;DHT22;45778;51.142;3.732;2023-02-19T02:41:09;10.20;99.90
59923;DHT22;45778;51.142;3.732;2023-02-19T02:43:36;10.20;99.90
59923;DHT22;45778;51.142;3.732;2023-02-19T02:46:01;10.30;99.90
59923;DHT22;45778;51.142;3.732;2023-02-19T02:48:47;10.30;99.90
59923;DHT22;45778;51.142;3.732;2023-02-19T02:51:42;10.30;99.90
59923;DHT22;45778;51.142;3.732;2023-02-19T02:54:12;10.30;99.90
59923;DHT22;45778;51.142;3.732;2023-02-19T02:56:58;10.30;99.90
59923;DHT22;45778;51.142;3.732;2023-02-19T02:59:32;10.30;99.90
59923;DHT22;45778;51.142;3.732;2023-02-19T03:08:08;10.20;99.90
59923;DHT22;45778;51.142;3.732;2023-02-19T03:11:05;10.30;99.90
59923;DHT22;45778;51.142;3.732;2023-02-19T03:14:01;10.30;99.90
59923;DHT22;45778;51.142;3.732;2023-02-19T03:16:48;10.20;99.90
59923;DHT22;45778;51.142;3.732;2023-02-19T03:19:39;10.20;99.90
59923;DHT22;45778;51.142;3.732;2023-02-19T03:22:24;10.20;99.90
59923;DHT22;45778;51.142;3.732;2023-02-19T03:25:12;10.20;99.90
59923;DHT22;45778;51.142;3.732;2023-02-19T03:27:59;10.20;99.90
59923;DHT22;45778;51.142;3.732;2023-02-19T03:30:32;10.20;99.90
59923;DHT22;45778;51.142;3.732;2023-02-19T03:33:07;10.20;99.90
59923;DHT22;45778;51.142;3.732;2023-02-19T03:35:41;10.10;99.90
59923;DHT22;45778;51.142;3.732;2023-02-19T03:38:47;10.10;99.90
59923;DHT22;45778;51.142;3.732;2023-02-19T03:49:20;10.10;99.90
59923;DHT22;45778;51.142;3.732;2023-02-19T03:54:54;10.20;99.90
59923;DHT22;45778;51.142;3.732;2023-02-19T03:57:45;10.10;99.90
59923;DHT22;45778;51.142;3.732;2023-02-19T04:00:39;10.10;99.90
59923;DHT22;45778;51.142;3.732;2023-02-19T04:05:44;10.10;99.90
59923;DHT22;45778;51.142;3.732;2023-02-19T04:08:18;10.10;99.90
59923;DHT22;45778;51.142;3.732;2023-02-19T04:10:46;10.10;99.90
59923;DHT22;45778;51.142;3.732;2023-02-19T04:13:30;10.10;99.90
59923;DHT22;45778;51.142;3.732;2023-02-19T04:16:00;10.10;99.90
59923;DHT22;45778;51.142;3.732;2023-02-19T04:18:38;10.20;99.90
59923;DHT22;45778;51.142;3.732;2023-02-19T04:21:05;10.20;99.90
59923;DHT22;45778;51.142;3.732;2023-02-19T04:23:36;10.20;99.90
59923;DHT22;45778;51.142;3.732;2023-02-19T04:26:04;10.20;99.90
59923;DHT22;45778;51.142;3.732;2023-02-19T04:28:31;10.20;99.90
59923;DHT22;45778;51.142;3.732;2023-02-19T04:30:57;10.30;99.90
59923;DHT22;45778;51.142;3.732;2023-02-19T04:33:23;10.20;99.90
59923;DHT22;45778;51.142;3.732;2023-02-19T04:35:48;10.30;99.90
59923;DHT22;45778;51.142;3.732;2023-02-19T04:38:14;10.30;99.90
59923;DHT22;45778;51.142;3.732;2023-02-19T04:40:40;10.30;99.90
59923;DHT22;45778;51.142;3.732;2023-02-19T04:43:05;10.30;99.90
59923;DHT22;45778;51.142;3.732;2023-02-19T04:45:31;10.40;99.90
59923;DHT22;45778;51.142;3.732;2023-02-19T04:47:57;10.40;99.90
59923;DHT22;45778;51.142;3.732;2023-02-19T04:50:24;10.40;99.90
59923;DHT22;45778;51.142;3.732;2023-02-19T04:52:50;10.40;99.90
59923;DHT22;45778;51.142;3.732;2023-02-19T04:55:16;10.50;99.90
59923;DHT22;45778;51.142;3.732;2023-02-19T04:57:42;10.50;99.90
59923;DHT22;45778;51.142;3.732;2023-02-19T05:00:08;10.50;99.90
59923;DHT22;45778;51.142;3.732;2023-02-19T05:02:34;10.40;99.90
59923;DHT22;45778;51.142;3.732;2023-02-19T05:05:00;10.30;99.90
59923;DHT22;45778;51.142;3.732;2023-02-19T05:07:26;10.40;99.90
59923;DHT22;45778;51.142;3.732;2023-02-19T05:09:52;10.40;99.90
59923;DHT22;45778;51.142;3.732;2023-02-19T05:12:17;10.40;99.90
59923;DHT22;45778;51.142;3.732;2023-02-19T05:14:43;10.40;99.90
59923;DHT22;45778;51.142;3.732;2023-02-19T05:17:09;10.50;99.90
59923;DHT22;45778;51.142;3.732;2023-02-19T05:19:34;10.50;99.90
59923;DHT22;45778;51.142;3.732;2023-02-19T05:22:00;10.40;99.90
59923;DHT22;45778;51.142;3.732;2023-02-19T05:24:26;10.50;99.90
59923;DHT22;45778;51.142;3.732;2023-02-19T05:26:52;10.40;99.90
59923;DHT22;45778;51.142;3.732;2023-02-19T05:29:18;10.40;99.90
59923;DHT22;45778;51.142;3.732;2023-02-19T05:31:44;10.50;99.90
59923;DHT22;45778;51.142;3.732;2023-02-19T05:34:09;10.50;99.90
59923;DHT22;45778;51.142;3.732;2023-02-19T05:36:36;10.50;99.90
59923;DHT22;45778;51.142;3.732;2023-02-19T05:39:02;10.40;99.90
59923;DHT22;45778;51.142;3.732;2023-02-19T05:41:30;10.40;99.90
59923;DHT22;45778;51.142;3.732;2023-02-19T05:43:56;10.30;99.90
59923;DHT22;45778;51.142;3.732;2023-02-19T05:46:24;10.40;99.90
59923;DHT22;45778;51.142;3.732;2023-02-19T05:48:51;10.40;99.90
59923;DHT22;45778;51.142;3.732;2023-02-19T05:51:21;10.40;99.90
59923;DHT22;45778;51.142;3.732;2023-02-19T05:53:47;10.40;99.90
59923;DHT22;45778;51.142;3.732;2023-02-19T05:58:51;10.40;99.90
59923;DHT22;45778;51.142;3.732;2023-02-19T06:01:19;10.40;99.90
59923;DHT22;45778;51.142;3.732;2023-02-19T06:03:45;10.40;99.90
59923;DHT22;45778;51.142;3.732;2023-02-19T06:06:15;10.40;99.90
59923;DHT22;45778;51.142;3.732;2023-02-19T06:08:41;10.30;99.90
59923;DHT22;45778;51.142;3.732;2023-02-19T06:11:07;10.30;99.90
59923;DHT22;45778;51.142;3.732;2023-02-19T06:13:32;10.40;99.90
59923;DHT22;45778;51.142;3.732;2023-02-19T06:15:58;10.30;99.90
59923;DHT22;45778;51.142;3.732;2023-02-19T06:18:24;10.20;99.90
59923;DHT22;45778;51.142;3.732;2023-02-19T06:20:49;10.20;99.90
59923;DHT22;45778;51.142;3.732;2023-02-19T06:23:15;10.20;99.90
59923;DHT22;45778;51.142;3.732;2023-02-19T06:25:41;10.20;99.90
59923;DHT22;45778;51.142;3.732;2023-02-19T06:28:07;10.20;99.90
59923;DHT22;45778;51.142;3.732;2023-02-19T06:30:35;10.20;99.90
59923;DHT22;45778;51.142;3.732;2023-02-19T06:33:01;10.10;99.90
59923;DHT22;45778;51.142;3.732;2023-02-19T06:35:27;10.10;99.90
59923;DHT22;45778;51.142;3.732;2023-02-19T06:37:52;10.20;99.90
59923;DHT22;45778;51.142;3.732;2023-02-19T06:40:18;10.10;99.90
59923;DHT22;45778;51.142;3.732;2023-02-19T06:42:44;10.10;99.90
59923;DHT22;45778;51.142;3.732;2023-02-19T06:45:09;10.00;99.90
59923;DHT22;45778;51.142;3.732;2023-02-19T06:47:35;10.10;99.90
59923;DHT22;45778;51.142;3.732;2023-02-19T06:50:01;10.00;99.90
59923;DHT22;45778;51.142;3.732;2023-02-19T06:52:27;10.00;99.90
59923;DHT22;45778;51.142;3.732;2023-02-19T06:54:53;10.00;99.90
59923;DHT22;45778;51.142;3.732;2023-02-19T06:57:18;10.10;99.90
59923;DHT22;45778;51.142;3.732;2023-02-19T06:59:47;10.00;99.90
59923;DHT22;45778;51.142;3.732;2023-02-19T07:02:13;10.00;99.90
59923;DHT22;45778;51.142;3.732;2023-02-19T07:04:39;9.90;99.90
59923;DHT22;45778;51.142;3.732;2023-02-19T07:07:04;9.90;99.90
59923;DHT22;45778;51.142;3.732;2023-02-19T07:09:30;9.90;99.90
59923;DHT22;45778;51.142;3.732;2023-02-19T07:11:56;10.00;99.90
59923;DHT22;45778;51.142;3.732;2023-02-19T07:14:22;10.10;99.90
59923;DHT22;45778;51.142;3.732;2023-02-19T07:16:48;10.10;99.90
59923;DHT22;45778;51.142;3.732;2023-02-19T07:19:14;10.20;99.90
59923;DHT22;45778;51.142;3.732;2023-02-19T07:21:40;10.10;99.90
59923;DHT22;45778;51.142;3.732;2023-02-19T07:24:08;10.10;99.90
59923;DHT22;45778;51.142;3.732;2023-02-19T07:26:34;10.20;99.90
59923;DHT22;45778;51.142;3.732;2023-02-19T07:29:00;10.20;99.90
59923;DHT22;45778;51.142;3.732;2023-02-19T07:31:27;10.20;99.90
59923;DHT22;45778;51.142;3.732;2023-02-19T07:33:53;10.20;99.90
59923;DHT22;45778;51.142;3.732;2023-02-19T07:36:21;10.30;99.90
59923;DHT22;45778;51.142;3.732;2023-02-19T07:38:51;10.30;99.90
59923;DHT22;45778;51.142;3.732;2023-02-19T07:41:19;10.30;99.90
59923;DHT22;45778;51.142;3.732;2023-02-19T07:43:45;10.20;99.90
59923;DHT22;45778;51.142;3.732;2023-02-19T07:46:12;10.20;99.90
59923;DHT22;45778;51.142;3.732;2023-02-19T07:48:39;10.20;99.90
59923;DHT22;45778;51.142;3.732;2023-02-19T07:51:07;10.30;99.90
59923;DHT22;45778;51.142;3.732;2023-02-19T07:53:35;10.30;99.90
59923;DHT22;45778;51.142;3.732;2023-02-19T07:56:02;10.20;99.90
59923;DHT22;45778;51.142;3.732;2023-02-19T07:58:29;10.20;99.90
59923;DHT22;45778;51.142;3.732;2023-02-19T08:00:55;10.20;99.90
59923;DHT22;45778;51.142;3.732;2023-02-19T08:03:20;10.30;99.90
59923;DHT22;45778;51.142;3.732;2023-02-19T08:05:46;10.30;99.90
59923;DHT22;45778;51.142;3.732;2023-02-19T08:08:15;10.30;99.90
59923;DHT22;45778;51.142;3.732;2023-02-19T08:10:41;10.30;99.90
59923;DHT22;45778;51.142;3.732;2023-02-19T08:13:26;10.30;99.90
59923;DHT22;45778;51.142;3.732;2023-02-19T08:16:14;10.40;99.90
59923;DHT22;45778;51.142;3.732;2023-02-19T08:18:42;10.40;99.90
59923;DHT22;45778;51.142;3.732;2023-02-19T08:21:09;10.40;99.90
59923;DHT22;45778;51.142;3.732;2023-02-19T08:23:35;10.50;99.90
59923;DHT22;45778;51.142;3.732;2023-02-19T08:26:01;10.40;99.90
59923;DHT22;45778;51.142;3.732;2023-02-19T08:28:28;10.40;99.90
59923;DHT22;45778;51.142;3.732;2023-02-19T08:31:00;10.50;99.90
59923;DHT22;45778;51.142;3.732;2023-02-19T08:33:27;10.60;99.90
59923;DHT22;45778;51.142;3.732;2023-02-19T08:35:55;10.50;99.90
59923;DHT22;45778;51.142;3.732;2023-02-19T08:38:21;10.60;99.90
59923;DHT22;45778;51.142;3.732;2023-02-19T08:40:46;10.60;99.90
59923;DHT22;45778;51.142;3.732;2023-02-19T08:43:14;10.60;99.90
59923;DHT22;45778;51.142;3.732;2023-02-19T08:45:42;10.60;99.90
59923;DHT22;45778;51.142;3.732;2023-02-19T08:48:10;10.60;99.90
59923;DHT22;45778;51.142;3.732;2023-02-19T08:50:36;10.60;99.90
59923;DHT22;45778;51.142;3.732;2023-02-19T08:53:03;10.50;99.90
59923;DHT22;45778;51.142;3.732;2023-02-19T08:55:29;10.50;99.90
59923;DHT22;45778;51.142;3.732;2023-02-19T08:57:55;10.50;99.90
59923;DHT22;45778;51.142;3.732;2023-02-19T09:00:21;10.60;99.90
59923;DHT22;45778;51.142;3.732;2023-02-19T09:02:47;10.70;99.90
59923;DHT22;45778;51.142;3.732;2023-02-19T09:05:14;10.70;99.90
59923;DHT22;45778;51.142;3.732;2023-02-19T09:07:40;10.80;99.90
59923;DHT22;45778;51.142;3.732;2023-02-19T09:10:06;10.80;99.90
59923;DHT22;45778;51.142;3.732;2023-02-19T09:12:32;10.80;99.90
59923;DHT22;45778;51.142;3.732;2023-02-19T09:14:59;10.80;99.90
59923;DHT22;45778;51.142;3.732;2023-02-19T09:17:25;10.80;99.90
59923;DHT22;45778;51.142;3.732;2023-02-19T09:19:51;10.90;99.90
59923;DHT22;45778;51.142;3.732;2023-02-19T09:22:17;10.80;99.90
59923;DHT22;45778;51.142;3.732;2023-02-19T09:24:43;10.80;99.90
59923;DHT22;45778;51.142;3.732;2023-02-19T09:27:17;10.80;99.90
59923;DHT22;45778;51.142;3.732;2023-02-19T09:29:43;10.70;99.90
59923;DHT22;45778;51.142;3.732;2023-02-19T09:32:09;10.80;99.90
59923;DHT22;45778;51.142;3.732;2023-02-19T09:34:35;10.90;99.90
59923;DHT22;45778;51.142;3.732;2023-02-19T09:37:02;10.90;99.90
59923;DHT22;45778;51.142;3.732;2023-02-19T09:39:27;11.00;99.90
59923;DHT22;45778;51.142;3.732;2023-02-19T09:42:03;11.10;99.90
59923;DHT22;45778;51.142;3.732;2023-02-19T09:44:39;11.10;99.90
59923;DHT22;45778;51.142;3.732;2023-02-19T09:47:12;11.00;99.90
59923;DHT22;45778;51.142;3.732;2023-02-19T09:49:41;11.00;99.90
59923;DHT22;45778;51.142;3.732;2023-02-19T09:52:28;11.00;99.90
59923;DHT22;45778;51.142;3.732;2023-02-19T09:54:58;11.10;99.90
59923;DHT22;45778;51.142;3.732;2023-02-19T09:57:27;11.00;99.90
59923;DHT22;45778;51.142;3.732;2023-02-19T10:00:06;11.00;99.90
59923;DHT22;45778;51.142;3.732;2023-02-19T10:02:38;11.00;99.90
59923;DHT22;45778;51.142;3.732;2023-02-19T10:05:13;11.10;99.90
59923;DHT22;45778;51.142;3.732;2023-02-19T10:07:43;11.00;99.90
59923;DHT22;45778;51.142;3.732;2023-02-19T10:12:40;11.00;99.90
59923;DHT22;45778;51.142;3.732;2023-02-19T10:17:47;11.30;99.90
59923;DHT22;45778;51.142;3.732;2023-02-19T10:20:21;11.30;99.90
59923;DHT22;45778;51.142;3.732;2023-02-19T10:22:56;11.40;99.90
59923;DHT22;45778;51.142;3.732;2023-02-19T10:25:23;11.40;99.90
59923;DHT22;45778;51.142;3.732;2023-02-19T10:27:49;11.50;99.90
59923;DHT22;45778;51.142;3.732;2023-02-19T10:30:22;11.30;99.90
59923;DHT22;45778;51.142;3.732;2023-02-19T10:33:17;11.20;99.90
59923;DHT22;45778;51.142;3.732;2023-02-19T10:36:04;11.20;99.90
59923;DHT22;45778;51.142;3.732;2023-02-19T10:38:34;11.30;99.90
59923;DHT22;45778;51.142;3.732;2023-02-19T10:41:07;11.10;99.90
59923;DHT22;45778;51.142;3.732;2023-02-19T10:43:39;11.20;99.90
59923;DHT22;45778;51.142;3.732;2023-02-19T10:46:24;11.10;99.90
59923;DHT22;45778;51.142;3.732;2023-02-19T10:48:54;11.10;99.90
59923;DHT22;45778;51.142;3.732;2023-02-19T10:51:31;11.00;99.90
59923;DHT22;45778;51.142;3.732;2023-02-19T10:56:49;11.10;99.90
59923;DHT22;45778;51.142;3.732;2023-02-19T10:59:26;11.10;99.90
59923;DHT22;45778;51.142;3.732;2023-02-19T11:01:57;11.20;99.90
59923;DHT22;45778;51.142;3.732;2023-02-19T11:04:25;11.20;99.90
59923;DHT22;45778;51.142;3.732;2023-02-19T11:06:51;11.20;99.90
59923;DHT22;45778;51.142;3.732;2023-02-19T11:09:31;11.10;99.90
59923;DHT22;45778;51.142;3.732;2023-02-19T11:11:58;11.10;99.90
59923;DHT22;45778;51.142;3.732;2023-02-19T11:14:25;11.20;99.90
59923;DHT22;45778;51.142;3.732;2023-02-19T11:16:53;11.20;99.90
59923;DHT22;45778;51.142;3.732;2023-02-19T11:19:30;11.10;99.90
59923;DHT22;45778;51.142;3.732;2023-02-19T11:21:58;11.20;99.90
59923;DHT22;45778;51.142;3.732;2023-02-19T11:24:32;11.10;99.90
59923;DHT22;45778;51.142;3.732;2023-02-19T11:27:00;11.30;99.90
59923;DHT22;45778;51.142;3.732;2023-02-19T11:29:28;11.40;99.90
59923;DHT22;45778;51.142;3.732;2023-02-19T11:32:28;11.40;99.90
59923;DHT22;45778;51.142;3.732;2023-02-19T11:35:20;11.30;99.90
59923;DHT22;45778;51.142;3.732;2023-02-19T11:37:56;11.20;99.90
59923;DHT22;45778;51.142;3.732;2023-02-19T11:46:16;11.40;99.90
59923;DHT22;45778;51.142;3.732;2023-02-19T11:54:50;11.70;99.90
59923;DHT22;45778;51.142;3.732;2023-02-19T12:02:31;12.00;99.90
59923;DHT22;45778;51.142;3.732;2023-02-19T12:05:25;11.70;99.90
59923;DHT22;45778;51.142;3.732;2023-02-19T12:08:24;11.60;99.90
59923;DHT22;45778;51.142;3.732;2023-02-19T12:19:17;11.50;99.90
59923;DHT22;45778;51.142;3.732;2023-02-19T12:30:42;11.20;99.90
59923;DHT22;45778;51.142;3.732;2023-02-19T12:35:52;11.10;99.90
59923;DHT22;45778;51.142;3.732;2023-02-19T12:38:30;11.10;99.90
59923;DHT22;45778;51.142;3.732;2023-02-19T12:43:50;10.90;99.90
59923;DHT22;45778;51.142;3.732;2023-02-19T12:46:30;10.80;99.90
59923;DHT22;45778;51.142;3.732;2023-02-19T12:49:04;10.60;99.90
59923;DHT22;45778;51.142;3.732;2023-02-19T12:51:46;10.60;99.90
59923;DHT22;45778;51.142;3.732;2023-02-19T12:59:41;10.70;99.90
59923;DHT22;45778;51.142;3.732;2023-02-19T13:05:05;10.50;99.90
59923;DHT22;45778;51.142;3.732;2023-02-19T13:07:42;10.50;99.90
59923;DHT22;45778;51.142;3.732;2023-02-19T13:13:21;10.50;99.90
59923;DHT22;45778;51.142;3.732;2023-02-19T13:15:52;10.50;99.90
59923;DHT22;45778;51.142;3.732;2023-02-19T13:18:24;10.40;99.90
59923;DHT22;45778;51.142;3.732;2023-02-19T13:20:52;10.50;99.90
59923;DHT22;45778;51.142;3.732;2023-02-19T13:23:24;10.50;99.90
59923;DHT22;45778;51.142;3.732;2023-02-19T13:29:15;10.50;99.90
59923;DHT22;45778;51.142;3.732;2023-02-19T13:35:08;10.60;99.90
59923;DHT22;45778;51.142;3.732;2023-02-19T13:37:36;10.60;99.90
59923;DHT22;45778;51.142;3.732;2023-02-19T13:40:05;10.30;99.90
59923;DHT22;45778;51.142;3.732;2023-02-19T13:42:50;10.00;99.90
59923;DHT22;45778;51.142;3.732;2023-02-19T13:45:22;10.20;99.90
59923;DHT22;45778;51.142;3.732;2023-02-19T13:50:25;10.40;99.90
59923;DHT22;45778;51.142;3.732;2023-02-19T13:52:56;10.60;99.90
59923;DHT22;45778;51.142;3.732;2023-02-19T13:58:38;10.60;99.90
59923;DHT22;45778;51.142;3.732;2023-02-19T14:01:16;10.40;99.90
59923;DHT22;45778;51.142;3.732;2023-02-19T14:03:52;10.30;99.90
59923;DHT22;45778;51.142;3.732;2023-02-19T14:06:19;10.30;99.90
59923;DHT22;45778;51.142;3.732;2023-02-19T14:08:50;10.20;99.90
59923;DHT22;45778;51.142;3.732;2023-02-19T14:12:00;10.20;99.90
59923;DHT22;45778;51.142;3.732;2023-02-19T14:14:26;10.00;99.90
59923;DHT22;45778;51.142;3.732;2023-02-19T14:16:58;9.70;99.90
59923;DHT22;45778;51.142;3.732;2023-02-19T14:30:29;9.60;99.90
59923;DHT22;45778;51.142;3.732;2023-02-19T14:32:56;9.90;99.90
59923;DHT22;45778;51.142;3.732;2023-02-19T14:35:26;9.90;99.90
59923;DHT22;45778;51.142;3.732;2023-02-19T14:37:55;9.90;99.90
59923;DHT22;45778;51.142;3.732;2023-02-19T14:40:37;10.10;99.90
59923;DHT22;45778;51.142;3.732;2023-02-19T14:43:10;10.10;99.90
59923;DHT22;45778;51.142;3.732;2023-02-19T14:45:47;10.20;99.90
59923;DHT22;45778;51.142;3.732;2023-02-19T14:48:20;10.10;99.90
59923;DHT22;45778;51.142;3.732;2023-02-19T14:50:52;10.10;99.90
59923;DHT22;45778;51.142;3.732;2023-02-19T14:53:21;10.00;99.90
59923;DHT22;45778;51.142;3.732;2023-02-19T14:55:48;9.90;99.90
59923;DHT22;45778;51.142;3.732;2023-02-19T14:58:20;9.90;99.90
59923;DHT22;45778;51.142;3.732;2023-02-19T15:00:46;10.00;99.90
59923;DHT22;45778;51.142;3.732;2023-02-19T15:03:33;10.00;99.90
59923;DHT22;45778;51.142;3.732;2023-02-19T15:06:12;10.10;99.90
59923;DHT22;45778;51.142;3.732;2023-02-19T15:08:50;10.10;99.90
59923;DHT22;45778;51.142;3.732;2023-02-19T15:11:22;10.20;99.90
59923;DHT22;45778;51.142;3.732;2023-02-19T15:14:02;10.20;99.90
59923;DHT22;45778;51.142;3.732;2023-02-19T15:16:31;10.50;99.90
59923;DHT22;45778;51.142;3.732;2023-02-19T15:18:58;10.30;99.90
59923;DHT22;45778;51.142;3.732;2023-02-19T15:21:31;10.20;99.90
59923;DHT22;45778;51.142;3.732;2023-02-19T15:24:02;10.20;99.90
59923;DHT22;45778;51.142;3.732;2023-02-19T15:26:37;10.20;99.90
59923;DHT22;45778;51.142;3.732;2023-02-19T15:29:26;10.10;99.90
59923;DHT22;45778;51.142;3.732;2023-02-19T15:31:55;10.10;99.90
59923;DHT22;45778;51.142;3.732;2023-02-19T15:34:23;10.10;99.90
59923;DHT22;45778;51.142;3.732;2023-02-19T15:36:51;10.00;99.90
59923;DHT22;45778;51.142;3.732;2023-02-19T15:39:24;9.90;99.90
59923;DHT22;45778;51.142;3.732;2023-02-19T15:41:57;9.80;99.90
59923;DHT22;45778;51.142;3.732;2023-02-19T15:46:53;9.70;99.90
59923;DHT22;45778;51.142;3.732;2023-02-19T15:49:24;9.80;99.90
59923;DHT22;45778;51.142;3.732;2023-02-19T15:52:02;9.90;99.90
59923;DHT22;45778;51.142;3.732;2023-02-19T15:57:20;9.70;99.90
59923;DHT22;45778;51.142;3.732;2023-02-19T16:00:02;9.90;99.90
59923;DHT22;45778;51.142;3.732;2023-02-19T16:02:31;9.90;99.90
59923;DHT22;45778;51.142;3.732;2023-02-19T16:04:57;9.90;99.90
59923;DHT22;45778;51.142;3.732;2023-02-19T16:07:29;9.90;99.90
59923;DHT22;45778;51.142;3.732;2023-02-19T16:10:18;10.00;99.90
59923;DHT22;45778;51.142;3.732;2023-02-19T16:12:56;9.80;99.90
59923;DHT22;45778;51.142;3.732;2023-02-19T16:15:22;9.80;99.90
59923;DHT22;45778;51.142;3.732;2023-02-19T16:17:48;10.00;99.90
59923;DHT22;45778;51.142;3.732;2023-02-19T16:20:20;10.00;99.90
59923;DHT22;45778;51.142;3.732;2023-02-19T16:22:47;9.90;99.90
59923;DHT22;45778;51.142;3.732;2023-02-19T16:25:40;10.00;99.90
59923;DHT22;45778;51.142;3.732;2023-02-19T16:28:30;10.00;99.90
59923;DHT22;45778;51.142;3.732;2023-02-19T16:31:05;9.80;99.90
59923;DHT22;45778;51.142;3.732;2023-02-19T16:33:38;9.90;99.90
59923;DHT22;45778;51.142;3.732;2023-02-19T16:47:35;9.60;99.90
59923;DHT22;45778;51.142;3.732;2023-02-19T16:49:36;9.50;99.90
59923;DHT22;45778;51.142;3.732;2023-02-19T16:52:02;9.30;99.90
59923;DHT22;45778;51.142;3.732;2023-02-19T16:54:28;9.40;99.90
59923;DHT22;45778;51.142;3.732;2023-02-19T16:56:54;9.30;99.90
59923;DHT22;45778;51.142;3.732;2023-02-19T16:59:20;9.20;99.90
59923;DHT22;45778;51.142;3.732;2023-02-19T17:01:45;9.20;99.90
59923;DHT22;45778;51.142;3.732;2023-02-19T17:04:11;9.00;99.90
59923;DHT22;45778;51.142;3.732;2023-02-19T17:06:37;9.00;99.90
59923;DHT22;45778;51.142;3.732;2023-02-19T17:09:05;9.10;99.90
59923;DHT22;45778;51.142;3.732;2023-02-19T17:11:31;9.20;99.90
59923;DHT22;45778;51.142;3.732;2023-02-19T17:13:57;9.00;99.90
59923;DHT22;45778;51.142;3.732;2023-02-19T17:16:25;8.90;99.90
59923;DHT22;45778;51.142;3.732;2023-02-19T17:18:54;8.80;99.90
59923;DHT22;45778;51.142;3.732;2023-02-19T17:21:23;8.70;99.90
59923;DHT22;45778;51.142;3.732;2023-02-19T17:23:49;8.50;99.90
59923;DHT22;45778;51.142;3.732;2023-02-19T17:26:24;8.20;99.90
59923;DHT22;45778;51.142;3.732;2023-02-19T17:28:50;8.10;99.90
59923;DHT22;45778;51.142;3.732;2023-02-19T17:31:16;8.10;99.90
59923;DHT22;45778;51.142;3.732;2023-02-19T17:33:43;8.10;99.90
59923;DHT22;45778;51.142;3.732;2023-02-19T17:36:21;8.00;99.90
59923;DHT22;45778;51.142;3.732;2023-02-19T17:38:47;7.90;99.90
59923;DHT22;45778;51.142;3.732;2023-02-19T17:41:13;7.80;99.90
59923;DHT22;45778;51.142;3.732;2023-02-19T17:43:39;7.80;99.90
59923;DHT22;45778;51.142;3.732;2023-02-19T17:46:05;7.70;99.90
59923;DHT22;45778;51.142;3.732;2023-02-19T17:48:31;7.70;99.90
59923;DHT22;45778;51.142;3.732;2023-02-19T17:50:56;7.70;99.90
59923;DHT22;45778;51.142;3.732;2023-02-19T17:53:22;7.60;99.90
59923;DHT22;45778;51.142;3.732;2023-02-19T17:55:48;7.60;99.90
59923;DHT22;45778;51.142;3.732;2023-02-19T17:58:13;7.60;99.90
59923;DHT22;45778;51.142;3.732;2023-02-19T18:00:39;7.50;99.90
59923;DHT22;45778;51.142;3.732;2023-02-19T18:03:05;7.50;99.90
59923;DHT22;45778;51.142;3.732;2023-02-19T18:05:32;7.50;99.90
59923;DHT22;45778;51.142;3.732;2023-02-19T18:07:58;7.50;99.90